Ripley, New York
Current Conditions -  °F | °C
As of 1:35 PM on Monday 26 Jan 2015 (Local Time) from KJHW Reporting Station
Overcast Overcast  
Wind Chill:   Ceiling: 2900
Heat Index: 18°   Visibility: 2mi
Dew Point: 12°   Wind: 7mph
Humidity: 79%   Direction: 90°E
Pressure: 29.73"   Gusts: NA
Location:  42.27°N, 79.71°W
Report Text: KJHW 261835Z 09006KT 2SM BKN029 OVC036 M08/M11 A2973 RMK AO1
Loading
Personal Weather Stations






























Interactive Weather Map New forecast layout! Learn more

10-Day Weather Forecast

Advertisements
Track Severe Weather on mobile